createdAt,value
2023-02-19T00:01:43.350Z,100446.78
2023-02-19T00:04:14.157Z,100432.72
2023-02-19T00:06:44.663Z,100437.03
2023-02-19T00:09:13.662Z,100447.59
2023-02-19T00:11:41.690Z,100434.41
2023-02-19T00:14:10.270Z,100441.50
2023-02-19T00:16:40.613Z,100438.19
2023-02-19T00:19:12.743Z,100431.75
2023-02-19T00:21:40.504Z,100438.19
2023-02-19T00:24:12.631Z,100427.59
2023-02-19T00:26:41.715Z,100420.66
2023-02-19T00:29:13.255Z,100415.53
2023-02-19T00:31:43.116Z,100417.53
2023-02-19T00:34:12.110Z,100406.97
2023-02-19T00:36:41.237Z,100422.00
2023-02-19T00:39:13.998Z,100409.41
2023-02-19T00:41:41.944Z,100416.38
2023-02-19T00:44:11.295Z,100407.78
2023-02-19T00:46:40.965Z,100410.25
2023-02-19T00:49:14.296Z,100412.88
2023-02-19T00:51:42.049Z,100401.50
2023-02-19T00:54:12.049Z,100405.63
2023-02-19T00:56:39.810Z,100407.28
2023-02-19T00:59:07.548Z,100407.97
2023-02-19T01:01:35.319Z,100411.25
2023-02-19T01:04:05.513Z,100405.16
2023-02-19T01:06:35.220Z,100410.25
2023-02-19T01:09:03.374Z,100397.06
2023-02-19T01:11:33.253Z,100401.34
2023-02-19T01:14:01.412Z,100399.38
2023-02-19T01:16:30.869Z,100399.38
2023-02-19T01:18:58.862Z,100411.25
2023-02-19T01:21:28.924Z,100405.16
2023-02-19T01:23:57.430Z,100399.88
2023-02-19T01:26:28.988Z,100408.63
2023-02-19T01:28:58.389Z,100381.56
2023-02-19T01:31:26.544Z,100397.22
2023-02-19T01:33:56.492Z,100405.16
2023-02-19T01:36:24.804Z,100402.69
2023-02-19T01:38:52.710Z,100393.78
2023-02-19T01:41:23.263Z,100397.22
2023-02-19T01:44:01.777Z,100405.97
2023-02-19T01:46:30.855Z,100398.88
2023-02-19T01:49:02.134Z,100408.31
2023-02-19T01:51:34.266Z,100395.75
2023-02-19T01:54:06.138Z,100398.56
2023-02-19T01:56:36.553Z,100405.66
2023-02-19T01:59:07.591Z,100381.88
2023-02-19T02:01:36.856Z,100390.47
2023-02-19T02:04:06.240Z,100391.94
2023-02-19T02:06:40.435Z,100391.94
2023-02-19T02:09:26.226Z,100399.56
2023-02-19T02:11:54.349Z,100393.44
2023-02-19T02:14:26.911Z,100398.91
2023-02-19T02:17:03.081Z,100408.47
2023-02-19T02:19:51.469Z,100409.97
2023-02-19T02:22:21.937Z,100402.88
2023-02-19T02:25:34.552Z,100402.53
2023-02-19T02:28:20.303Z,100405.00
2023-02-19T02:30:55.330Z,100405.19
2023-02-19T02:33:31.310Z,100398.41
2023-02-19T02:36:02.077Z,100400.22
2023-02-19T02:38:32.845Z,100396.75
2023-02-19T02:41:00.970Z,100388.84
2023-02-19T02:43:28.849Z,100386.81
2023-02-19T02:45:57.972Z,100392.94
2023-02-19T02:48:36.899Z,100396.25
2023-02-19T02:51:12.511Z,100395.59
2023-02-19T02:54:11.468Z,100397.59
2023-02-19T02:56:41.315Z,100395.59
2023-02-19T02:59:11.962Z,100394.75
2023-02-19T03:02:01.992Z,100377.75
2023-02-19T03:04:35.994Z,100397.75
2023-02-19T03:07:08.926Z,100385.50
2023-02-19T03:09:43.099Z,100391.94
2023-02-19T03:12:33.277Z,100390.97
2023-02-19T03:15:25.000Z,100393.44
2023-02-19T03:18:17.633Z,100385.50
2023-02-19T03:20:49.759Z,100393.44
2023-02-19T03:23:19.287Z,100390.28
2023-02-19T03:26:05.597Z,100392.94
2023-02-19T03:29:01.303Z,100397.59
2023-02-19T03:31:32.921Z,100397.75
2023-02-19T03:34:07.876Z,100405.34
2023-02-19T03:36:39.009Z,100411.28
2023-02-19T03:39:08.256Z,100403.19
2023-02-19T03:41:44.515Z,100408.63
2023-02-19T03:44:18.733Z,100406.97
2023-02-19T03:46:52.820Z,100408.63
2023-02-19T03:49:29.238Z,100412.78
2023-02-19T03:52:05.548Z,100421.03
2023-02-19T03:54:38.718Z,100424.34
2023-02-19T03:57:15.260Z,100415.56
2023-02-19T03:59:49.856Z,100422.00
2023-02-19T04:02:25.516Z,100423.66
2023-02-19T04:04:59.763Z,100424.00
2023-02-19T04:07:30.965Z,100429.28
2023-02-19T04:09:58.790Z,100430.44
2023-02-19T04:12:26.946Z,100428.94
2023-02-19T04:15:00.776Z,100438.72
2023-02-19T04:17:33.297Z,100440.34
2023-02-19T04:20:04.911Z,100449.44
2023-02-19T04:22:32.630Z,100461.66
2023-02-19T04:25:00.905Z,100465.44
2023-02-19T04:27:28.859Z,100472.38
2023-02-19T04:29:56.629Z,100472.38
2023-02-19T04:32:24.380Z,100472.69
2023-02-19T04:34:54.299Z,100480.75
2023-02-19T04:37:23.559Z,100476.50
2023-02-19T04:39:51.316Z,100476.16
2023-02-19T04:42:19.091Z,100485.06
2023-02-19T04:44:46.979Z,100478.94
2023-02-19T04:47:17.748Z,100482.28
2023-02-19T04:49:45.612Z,100498.28
2023-02-19T04:52:13.367Z,100503.06
2023-02-19T04:54:42.400Z,100507.19
2023-02-19T04:57:10.124Z,100518.25
2023-02-19T04:59:37.968Z,100502.53
2023-02-19T05:02:05.658Z,100511.97
2023-02-19T05:04:33.685Z,100518.59
2023-02-19T05:07:01.514Z,100505.38
2023-02-19T05:09:29.226Z,100509.31
2023-02-19T05:11:58.268Z,100529.31
2023-02-19T05:14:26.100Z,100529.59
2023-02-19T05:16:53.925Z,100534.06
2023-02-19T05:19:21.649Z,100533.22
2023-02-19T05:21:49.389Z,100529.94
2023-02-19T05:24:17.078Z,100529.41
2023-02-19T05:26:45.547Z,100541.66
2023-02-19T05:29:14.720Z,100536.00
2023-02-19T05:31:42.552Z,100549.88
2023-02-19T05:34:10.428Z,100548.06
2023-02-19T05:36:38.748Z,100552.50
2023-02-19T05:39:07.344Z,100554.16
2023-02-19T05:41:35.368Z,100560.59
2023-02-19T05:44:03.049Z,100563.22
2023-02-19T05:46:32.443Z,100572.63
2023-02-19T05:49:00.290Z,100570.13
2023-02-19T05:51:28.666Z,100569.63
2023-02-19T05:53:57.639Z,100573.94
2023-02-19T05:56:31.152Z,100573.78
2023-02-19T05:59:00.471Z,100581.00
2023-02-19T06:01:29.611Z,100578.88
2023-02-19T06:03:58.920Z,100584.50
2023-02-19T06:06:27.613Z,100596.53
2023-02-19T06:08:55.524Z,100598.88
2023-02-19T06:11:24.254Z,100606.31
2023-02-19T06:13:52.260Z,100611.59
2023-02-19T06:16:21.865Z,100612.03
2023-02-19T06:18:50.044Z,100619.13
2023-02-19T06:21:19.849Z,100614.38
2023-02-19T06:23:47.799Z,100620.09
2023-02-19T06:26:18.712Z,100620.94
2023-02-19T06:28:47.702Z,100631.19
2023-02-19T06:31:16.242Z,100653.31
2023-02-19T06:33:44.138Z,100657.00
2023-02-19T06:36:14.062Z,100672.75
2023-02-19T06:38:43.466Z,100676.97
2023-02-19T06:41:12.781Z,100683.63
2023-02-19T06:43:40.915Z,100701.34
2023-02-19T06:46:09.119Z,100710.91
2023-02-19T06:48:36.908Z,100717.34
2023-02-19T06:51:04.851Z,100732.91
2023-02-19T06:53:32.587Z,100731.16
2023-02-19T06:56:03.764Z,100729.50
2023-02-19T06:58:32.115Z,100732.00
2023-02-19T07:01:00.251Z,100755.72
2023-02-19T07:03:28.101Z,100768.03
2023-02-19T07:05:55.893Z,100768.47
2023-02-19T07:08:23.703Z,100785.06
2023-02-19T07:10:59.080Z,100794.06
2023-02-19T07:13:28.857Z,100803.72
2023-02-19T07:16:00.206Z,100811.91
2023-02-19T07:18:28.603Z,100813.00
2023-02-19T07:20:56.291Z,100824.22
2023-02-19T07:23:24.052Z,100823.41
2023-02-19T07:25:51.839Z,100833.50
2023-02-19T07:28:19.535Z,100839.03
2023-02-19T07:30:48.602Z,100849.13
2023-02-19T07:33:16.391Z,100849.97
2023-02-19T07:35:47.135Z,100862.16
2023-02-19T07:38:17.140Z,100856.34
2023-02-19T07:40:52.009Z,100859.34
2023-02-19T07:43:20.254Z,100864.38
2023-02-19T07:45:49.494Z,100882.19
2023-02-19T07:48:17.317Z,100888.28
2023-02-19T07:50:52.213Z,100892.59
2023-02-19T07:53:20.125Z,100891.50
2023-02-19T07:55:47.913Z,100897.59
2023-02-19T07:58:15.746Z,100894.31
2023-02-19T08:00:43.486Z,100897.22
2023-02-19T08:03:12.102Z,100900.75
2023-02-19T08:05:41.328Z,100899.59
2023-02-19T08:08:10.613Z,100901.25
2023-02-19T08:10:55.793Z,100907.75
2023-02-19T08:13:25.067Z,100902.50
2023-02-19T08:15:57.751Z,100914.81
2023-02-19T08:18:33.775Z,100918.53
2023-02-19T08:21:01.834Z,100921.31
2023-02-19T08:23:29.738Z,100925.59
2023-02-19T08:25:59.881Z,100922.31
2023-02-19T08:28:28.378Z,100914.19
2023-02-19T08:31:00.743Z,100933.75
2023-02-19T08:33:30.413Z,100933.59
2023-02-19T08:35:58.678Z,100942.03
2023-02-19T08:38:26.412Z,100941.84
2023-02-19T08:40:54.148Z,100946.53
2023-02-19T08:43:21.801Z,100945.00
2023-02-19T08:45:49.702Z,100952.44
2023-02-19T08:48:17.414Z,100951.72
2023-02-19T08:50:46.486Z,100962.31
2023-02-19T08:53:14.295Z,100968.69
2023-02-19T08:55:41.963Z,100975.09
2023-02-19T08:58:11.462Z,100981.09
2023-02-19T09:00:39.198Z,100996.28
2023-02-19T09:03:07.147Z,100989.50
2023-02-19T09:05:34.908Z,100993.16
2023-02-19T09:08:04.003Z,100989.78
2023-02-19T09:10:31.721Z,100994.78
2023-02-19T09:12:59.436Z,100988.31
2023-02-19T09:15:28.547Z,100995.97
2023-02-19T09:17:56.486Z,101003.88
2023-02-19T09:20:24.281Z,101003.03
2023-02-19T09:22:57.220Z,101021.50
2023-02-19T09:25:26.806Z,101022.63
2023-02-19T09:27:58.262Z,101029.38
2023-02-19T09:30:26.180Z,101040.00
2023-02-19T09:32:53.897Z,101038.31
2023-02-19T09:35:21.610Z,101047.28
2023-02-19T09:37:49.370Z,101051.28
2023-02-19T09:40:21.494Z,101060.28
2023-02-19T09:42:52.766Z,101059.34
2023-02-19T09:45:24.421Z,101060.78
2023-02-19T09:47:55.072Z,101070.94
2023-02-19T09:50:28.242Z,101071.13
2023-02-19T09:52:59.542Z,101086.25
2023-02-19T09:55:34.416Z,101093.16
2023-02-19T09:58:09.602Z,101098.59
2023-02-19T10:00:38.661Z,101102.97
2023-02-19T10:03:11.118Z,101117.09
2023-02-19T10:05:40.930Z,101111.97
2023-02-19T10:08:14.081Z,101117.97
2023-02-19T10:10:42.134Z,101119.47
2023-02-19T10:13:20.300Z,101120.56
2023-02-19T10:15:51.138Z,101133.63
2023-02-19T10:18:21.534Z,101137.94
2023-02-19T10:20:50.709Z,101146.81
2023-02-19T10:23:19.120Z,101148.78
2023-02-19T10:25:50.211Z,101153.38
2023-02-19T10:28:22.285Z,101155.56
2023-02-19T10:30:54.202Z,101161.53
2023-02-19T10:33:23.446Z,101159.19
2023-02-19T10:35:57.208Z,101171.00
2023-02-19T10:38:29.365Z,101178.66
2023-02-19T10:41:01.756Z,101183.78
2023-02-19T10:43:34.116Z,101189.63
2023-02-19T10:46:05.635Z,101196.59
2023-02-19T10:48:37.507Z,101193.66
2023-02-19T10:51:09.721Z,101183.22
2023-02-19T10:53:43.980Z,101183.22
2023-02-19T10:56:14.640Z,101182.38
2023-02-19T10:58:47.252Z,101178.63
2023-02-19T11:01:20.853Z,101182.81
2023-02-19T11:03:50.055Z,101180.72
2023-02-19T11:06:20.232Z,101187.81
2023-02-19T11:08:54.811Z,101194.47
2023-02-19T11:11:25.650Z,101202.69
2023-02-19T11:13:56.141Z,101191.31
2023-02-19T11:16:24.608Z,101196.41
2023-02-19T11:18:57.590Z,101203.53
2023-02-19T11:21:32.786Z,101204.78
2023-02-19T11:24:02.472Z,101203.81
2023-02-19T11:26:38.093Z,101199.34
2023-02-19T11:29:19.700Z,101200.03
2023-02-19T11:31:47.597Z,101200.97
2023-02-19T11:34:30.294Z,101197.50
2023-02-19T11:37:13.303Z,101200.56
2023-02-19T11:39:43.318Z,101204.28
2023-02-19T11:42:36.840Z,101209.84
2023-02-19T11:45:23.934Z,101211.41
2023-02-19T11:48:19.605Z,101214.75
2023-02-19T11:51:00.340Z,101218.81
2023-02-19T11:53:32.047Z,101213.50
2023-02-19T11:56:17.830Z,101204.75
2023-02-19T11:59:02.544Z,101200.31
2023-02-19T12:01:49.977Z,101202.25
2023-02-19T12:04:49.551Z,101197.41
2023-02-19T12:07:29.453Z,101190.31
2023-02-19T12:10:07.667Z,101179.63
2023-02-19T12:12:56.102Z,101183.34
2023-02-19T12:15:32.947Z,101183.75
2023-02-19T12:18:23.928Z,101195.72
2023-02-19T12:21:00.349Z,101187.03
2023-02-19T12:23:47.287Z,101201.09
2023-02-19T12:26:23.450Z,101188.25
2023-02-19T12:29:13.202Z,101192.06
2023-02-19T12:32:15.184Z,101190.72
2023-02-19T12:35:08.936Z,101207.59
2023-02-19T12:37:45.459Z,101210.72
2023-02-19T12:40:18.448Z,101212.28
2023-02-19T12:43:00.642Z,101225.75
2023-02-19T12:45:35.340Z,101226.28
2023-02-19T12:48:11.625Z,101216.53
2023-02-19T12:50:42.021Z,101228.84
2023-02-19T12:53:19.992Z,101227.31
2023-02-19T12:55:49.115Z,101225.03
2023-02-19T12:58:28.380Z,101236.34
2023-02-19T13:00:59.734Z,101240.19
2023-02-19T13:03:33.266Z,101242.38
2023-02-19T13:06:12.671Z,101243.88
2023-02-19T13:09:05.335Z,101238.84
2023-02-19T13:11:39.574Z,101229.19
2023-02-19T13:14:17.851Z,101239.03
2023-02-19T13:16:49.459Z,101240.94
2023-02-19T13:19:17.285Z,101234.63
2023-02-19T13:22:09.735Z,101243.66
2023-02-19T13:24:42.694Z,101243.19
2023-02-19T13:27:42.958Z,101242.78
2023-02-19T13:30:34.549Z,101233.03
2023-02-19T13:33:21.554Z,101244.69
2023-02-19T13:36:06.095Z,101250.81
2023-02-19T13:38:39.517Z,101255.88
2023-02-19T13:41:08.026Z,101254.28
2023-02-19T13:43:39.007Z,101259.44
2023-02-19T13:46:09.910Z,101252.38
2023-02-19T13:48:40.041Z,101250.19
2023-02-19T13:51:48.977Z,101251.09
2023-02-19T13:54:30.464Z,101245.06
2023-02-19T13:57:35.262Z,101231.88
2023-02-19T14:00:02.993Z,101236.44
2023-02-19T14:02:35.297Z,101238.47
2023-02-19T14:05:10.381Z,101247.13
2023-02-19T14:07:55.820Z,101250.16
2023-02-19T14:11:05.006Z,101250.06
2023-02-19T14:14:06.578Z,101260.38
2023-02-19T14:17:08.375Z,101281.16
2023-02-19T14:20:05.449Z,101283.66
2023-02-19T14:23:02.565Z,101286.31
2023-02-19T14:25:35.803Z,101287.47
2023-02-19T14:28:14.438Z,101290.22
2023-02-19T14:30:47.952Z,101279.50
2023-02-19T14:33:18.543Z,101293.72
2023-02-19T14:35:48.625Z,101296.09
2023-02-19T14:38:21.162Z,101296.22
2023-02-19T14:40:50.033Z,101287.72
2023-02-19T14:43:21.172Z,101288.16
2023-02-19T14:45:51.896Z,101304.16
2023-02-19T14:48:23.787Z,101305.44
2023-02-19T14:50:55.316Z,101307.34
2023-02-19T14:53:25.385Z,101295.00
2023-02-19T14:55:55.591Z,101289.44
2023-02-19T14:58:29.520Z,101279.44
2023-02-19T15:00:57.402Z,101282.06
2023-02-19T15:03:34.341Z,101284.97
2023-02-19T15:06:06.602Z,101280.13
2023-02-19T15:08:38.744Z,101279.97
2023-02-19T15:11:13.367Z,101259.69
2023-02-19T15:13:45.860Z,101260.53
2023-02-19T15:16:19.543Z,101244.94
2023-02-19T15:18:49.520Z,101236.44
2023-02-19T15:21:24.392Z,101234.66
2023-02-19T15:23:56.342Z,101229.78
2023-02-19T15:26:29.033Z,101240.78
2023-02-19T15:29:03.648Z,101229.50
2023-02-19T15:31:31.519Z,101234.06
2023-02-19T15:33:59.297Z,101241.59
2023-02-19T15:36:30.769Z,101237.97
2023-02-19T15:39:02.142Z,101232.56
2023-02-19T15:41:36.449Z,101237.97
2023-02-19T15:44:22.382Z,101228.38
2023-02-19T15:46:50.950Z,101231.44
2023-02-19T15:49:24.769Z,101233.94
2023-02-19T15:51:58.686Z,101234.78
2023-02-19T15:54:30.853Z,101238.50
2023-02-19T15:57:03.983Z,101245.59
2023-02-19T15:59:39.798Z,101243.78
2023-02-19T16:02:12.883Z,101242.25
2023-02-19T16:04:42.818Z,101246.16
2023-02-19T16:07:24.672Z,101272.00
2023-02-19T16:10:06.745Z,101262.53
2023-02-19T16:12:34.687Z,101263.91
2023-02-19T16:15:14.693Z,101270.69
2023-02-19T16:17:44.213Z,101271.91
2023-02-19T16:20:21.393Z,101277.69
2023-02-19T16:22:49.726Z,101274.34
2023-02-19T16:25:28.941Z,101279.91
2023-02-19T16:27:57.187Z,101289.03
2023-02-19T16:30:31.402Z,101290.28
2023-02-19T16:33:34.732Z,101287.91
2023-02-19T16:36:18.734Z,101303.84
2023-02-19T16:39:19.021Z,101293.59
2023-02-19T16:42:16.448Z,101294.78
2023-02-19T16:44:45.400Z,101300.47
2023-02-19T16:47:28.720Z,101296.03
2023-02-19T16:49:58.103Z,101297.00
2023-02-19T16:52:26.016Z,101305.16
2023-02-19T16:54:53.734Z,101304.31
2023-02-19T16:57:21.760Z,101313.06
2023-02-19T16:59:49.526Z,101318.63
2023-02-19T17:02:23.330Z,101313.34
2023-02-19T17:04:54.952Z,101319.47
2023-02-19T17:07:23.475Z,101339.13
2023-02-19T17:09:51.175Z,101333.84
2023-02-19T17:12:19.131Z,101339.97
2023-02-19T17:14:46.849Z,101333.97
2023-02-19T17:17:14.682Z,101325.38
2023-02-19T17:19:43.776Z,101329.94
2023-02-19T17:22:16.706Z,101323.94
2023-02-19T17:24:45.852Z,101336.28
2023-02-19T17:27:14.101Z,101339.09
2023-02-19T17:29:41.830Z,101334.88
2023-02-19T17:32:09.799Z,101334.88
2023-02-19T17:34:37.588Z,101339.19
2023-02-19T17:37:06.665Z,101338.03
2023-02-19T17:39:34.358Z,101339.84
2023-02-19T17:42:02.179Z,101344.41
2023-02-19T17:44:29.883Z,101352.44
2023-02-19T17:46:57.611Z,101355.19
2023-02-19T17:49:25.422Z,101345.63
2023-02-19T17:51:53.338Z,101347.44
2023-02-19T17:54:22.478Z,101336.06
2023-02-19T17:56:50.158Z,101336.16
2023-02-19T17:59:18.397Z,101330.06
2023-02-19T18:01:46.998Z,101332.81
2023-02-19T18:04:14.773Z,101327.81
2023-02-19T18:06:43.067Z,101326.25
2023-02-19T18:09:11.361Z,101328.78
2023-02-19T18:11:40.445Z,101337.53
2023-02-19T18:14:08.174Z,101334.41
2023-02-19T18:16:35.983Z,101339.56
2023-02-19T18:19:03.971Z,101332.63
2023-02-19T18:21:31.709Z,101339.00
2023-02-19T18:23:59.484Z,101333.97
2023-02-19T18:26:27.220Z,101336.03
2023-02-19T18:28:56.584Z,101352.78
2023-02-19T18:31:24.493Z,101351.34
2023-02-19T18:33:52.303Z,101354.84
2023-02-19T18:36:20.005Z,101361.22
2023-02-19T18:38:47.781Z,101363.00
2023-02-19T18:41:19.749Z,101364.09
2023-02-19T18:43:47.899Z,101368.50
2023-02-19T18:46:17.465Z,101374.72
2023-02-19T18:48:45.523Z,101367.91
2023-02-19T18:51:13.544Z,101381.06
2023-02-19T18:53:43.213Z,101376.78
2023-02-19T18:56:11.054Z,101370.69
2023-02-19T18:58:38.807Z,101374.16
2023-02-19T19:01:06.797Z,101366.25
2023-02-19T19:03:35.911Z,101374.28
2023-02-19T19:06:03.656Z,101374.41
2023-02-19T19:08:31.394Z,101380.38
2023-02-19T19:10:59.199Z,101375.81
2023-02-19T19:13:26.913Z,101375.97
2023-02-19T19:15:54.725Z,101380.50
2023-02-19T19:18:22.582Z,101383.03
2023-02-19T19:20:56.180Z,101382.06
2023-02-19T19:23:25.061Z,101378.31
2023-02-19T19:25:54.517Z,101385.38
2023-02-19T19:28:22.610Z,101373.16
2023-02-19T19:30:50.802Z,101375.69
2023-02-19T19:33:18.576Z,101380.13
2023-02-19T19:35:46.448Z,101375.00
2023-02-19T19:38:15.514Z,101377.47
2023-02-19T19:40:43.311Z,101375.13
2023-02-19T19:43:11.932Z,101369.72
2023-02-19T19:45:39.981Z,101369.72
2023-02-19T19:48:07.805Z,101367.22
2023-02-19T19:50:35.476Z,101367.09
2023-02-19T19:53:03.208Z,101367.09
2023-02-19T19:55:32.255Z,101371.38
2023-02-19T19:58:00.894Z,101380.25
2023-02-19T20:00:28.749Z,101382.91
2023-02-19T20:02:56.553Z,101380.97
2023-02-19T20:05:24.286Z,101388.84
2023-02-19T20:07:53.910Z,101391.59
2023-02-19T20:10:21.959Z,101399.38
2023-02-19T20:12:51.077Z,101397.72
2023-02-19T20:15:21.685Z,101405.63
2023-02-19T20:17:49.591Z,101401.34
2023-02-19T20:20:17.902Z,101404.09
2023-02-19T20:22:45.846Z,101410.03
2023-02-19T20:25:13.572Z,101412.00
2023-02-19T20:27:41.284Z,101408.50
2023-02-19T20:30:14.609Z,101410.44
2023-02-19T20:32:42.559Z,101400.00
2023-02-19T20:35:10.466Z,101397.50
2023-02-19T20:37:38.886Z,101400.97
2023-02-19T20:40:08.409Z,101392.38
2023-02-19T20:42:36.202Z,101392.38
2023-02-19T20:45:04.218Z,101388.91
2023-02-19T20:47:33.344Z,101383.03
2023-02-19T20:50:01.085Z,101388.28
2023-02-19T20:52:28.792Z,101381.34
2023-02-19T20:54:57.585Z,101370.81
2023-02-19T20:57:25.511Z,101367.34
2023-02-19T20:59:53.959Z,101370.97
2023-02-19T21:02:24.494Z,101378.03
2023-02-19T21:04:53.660Z,101367.50
2023-02-19T21:07:21.329Z,101371.09
2023-02-19T21:09:49.396Z,101371.09
2023-02-19T21:12:17.428Z,101374.69
2023-02-19T21:14:45.197Z,101379.94
2023-02-19T21:17:12.948Z,101388.56
2023-02-19T21:19:40.780Z,101384.38
2023-02-19T21:22:09.835Z,101382.56
2023-02-19T21:24:37.616Z,101378.16
2023-02-19T21:27:06.166Z,101385.94
2023-02-19T21:29:33.914Z,101387.59
2023-02-19T21:32:01.941Z,101387.59
2023-02-19T21:34:30.902Z,101395.63
2023-02-19T21:36:59.747Z,101404.47
2023-02-19T21:39:31.138Z,101408.91
2023-02-19T21:41:59.092Z,101411.53
2023-02-19T21:44:26.988Z,101409.28
2023-02-19T21:46:54.849Z,101406.16
2023-02-19T21:49:22.788Z,101406.28
2023-02-19T21:51:50.586Z,101402.00
2023-02-19T21:54:21.137Z,101388.13
2023-02-19T21:56:50.264Z,101387.84
2023-02-19T21:59:18.305Z,101397.56
2023-02-19T22:01:46.618Z,101395.06
2023-02-19T22:04:17.323Z,101408.31
2023-02-19T22:06:45.425Z,101407.50
2023-02-19T22:09:13.825Z,101404.75
2023-02-19T22:11:41.578Z,101398.53
2023-02-19T22:14:10.719Z,101385.22
2023-02-19T22:16:38.573Z,101387.84
2023-02-19T22:19:06.423Z,101377.19
2023-02-19T22:21:34.194Z,101370.97
2023-02-19T22:24:03.567Z,101376.97
2023-02-19T22:26:33.470Z,101366.44
2023-02-19T22:29:05.792Z,101362.59
2023-02-19T22:31:36.115Z,101358.28
2023-02-19T22:34:04.416Z,101351.09
2023-02-19T22:36:34.062Z,101350.16
2023-02-19T22:39:02.348Z,101357.19
2023-02-19T22:41:30.176Z,101351.69
2023-02-19T22:43:59.593Z,101349.91
2023-02-19T22:46:29.250Z,101352.66
2023-02-19T22:48:59.548Z,101347.41
2023-02-19T22:51:27.683Z,101356.38
2023-02-19T22:53:57.295Z,101369.19
2023-02-19T22:56:26.892Z,101369.28
2023-02-19T22:58:55.874Z,101363.31
2023-02-19T23:01:24.456Z,101357.31
2023-02-19T23:03:53.859Z,101368.94
2023-02-19T23:06:26.041Z,101366.31
2023-02-19T23:08:54.560Z,101364.53
2023-02-19T23:11:23.899Z,101352.66
2023-02-19T23:13:51.882Z,101352.66
2023-02-19T23:16:19.752Z,101364.75
2023-02-19T23:18:47.882Z,101356.13
2023-02-19T23:21:16.088Z,101357.25
2023-02-19T23:23:47.066Z,101353.78
2023-02-19T23:26:16.433Z,101361.09
2023-02-19T23:28:45.053Z,101354.66
2023-02-19T23:31:13.149Z,101365.16
2023-02-19T23:33:41.078Z,101360.63
2023-02-19T23:36:10.317Z,101362.06
2023-02-19T23:38:38.416Z,101335.88
2023-02-19T23:41:12.097Z,101345.59
2023-02-19T23:43:39.829Z,101335.19
2023-02-19T23:46:08.484Z,101335.19
2023-02-19T23:48:36.326Z,101335.88
2023-02-19T23:51:04.117Z,101338.50
2023-02-19T23:53:31.998Z,101341.13
2023-02-19T23:55:59.766Z,101344.50
2023-02-19T23:58:28.863Z,101344.59
